Time;durP1;ratioP1;P1;durP2;ratioP2;P2;SDS_P1;SDS_P2;PMS_P1;PMS_P2;Temp;Humidity;BMP_temperature;BMP_pressure;BME280_temperature;BME280_humidity;BME280_pressure;Samples;Min_cycle;Max_cycle;Signal;HPM_P1;HPM_P2
2023/10/09 00:01:20;;;;;;;5.40;2.55;;;;;;;20.08;51.25;102040.19;16119245;19;129888;-47
2023/10/09 00:06:42;;;;;;;6.03;3.03;;;;;;;20.08;51.40;102034.63;16115158;19;131150;-46
2023/10/09 00:12:10;;;;;;;5.15;2.88;;;;;;;20.08;51.35;102037.41;16117396;19;129918;-46
2023/10/09 00:17:32;;;;;;;5.53;2.80;;;;;;;20.07;51.00;102044.03;16115590;19;129429;-47
2023/10/09 00:22:56;;;;;;;4.70;2.53;;;;;;;20.06;51.47;102037.66;16116168;19;131540;-48
2023/10/09 00:28:21;;;;;;;5.25;2.70;;;;;;;20.05;51.40;102049.00;16113140;19;130991;-48
2023/10/09 00:33:43;;;;;;;6.80;2.80;;;;;;;20.05;50.93;102029.56;16112950;19;130126;-47
2023/10/09 00:39:18;;;;;;;5.30;2.83;;;;;;;20.05;51.34;102029.56;16121724;19;131746;-47
2023/10/09 00:44:42;;;;;;;4.75;2.60;;;;;;;20.04;51.27;102012.03;16110332;19;130574;-45
2023/10/09 00:50:21;;;;;;;4.47;2.63;;;;;;;20.05;51.19;102040.66;16113708;19;131126;-47
2023/10/09 01:01:15;;;;;;;4.43;2.65;;;;;;;20.02;51.14;102030.00;16113872;19;130352;-46
2023/10/09 01:06:44;;;;;;;3.20;2.22;;;;;;;20.03;51.08;102003.94;16114560;19;130195;-46
2023/10/09 01:12:07;;;;;;;5.25;2.55;;;;;;;20.02;51.35;101993.91;16111615;19;130724;-49
2023/10/09 01:17:35;;;;;;;3.90;2.20;;;;;;;20.01;50.90;101978.31;16112052;19;131049;-49
2023/10/09 01:23:01;;;;;;;3.65;2.33;;;;;;;20.02;51.17;101980.84;16110110;19;130972;-47
2023/10/09 01:28:24;;;;;;;2.93;2.00;;;;;;;20.01;51.44;101994.97;16112372;19;130937;-47
2023/10/09 01:33:46;;;;;;;5.70;2.10;;;;;;;20.01;50.92;101994.97;16111599;19;131648;-48
2023/10/09 01:39:26;;;;;;;4.28;2.38;;;;;;;20.00;51.21;101994.09;16113010;19;129921;-47
2023/10/09 01:44:48;;;;;;;3.40;2.22;;;;;;;19.99;51.13;102006.28;16109095;19;131191;-48
2023/10/09 01:50:20;;;;;;;2.97;2.10;;;;;;;19.99;51.45;102011.84;16108131;19;131855;-49
2023/10/09 01:55:45;;;;;;;3.10;2.10;;;;;;;19.99;51.11;102004.38;16104962;19;131847;-48
2023/10/09 02:01:09;;;;;;;5.63;2.45;;;;;;;19.99;51.12;102001.59;16112068;19;130532;-47
2023/10/09 02:06:32;;;;;;;2.90;1.85;;;;;;;19.98;51.13;101999.88;16110208;19;130863;-47
2023/10/09 02:11:54;;;;;;;4.90;2.45;;;;;;;19.97;51.34;101987.06;16112704;19;130600;-46
2023/10/09 02:17:18;;;;;;;2.50;1.90;;;;;;;19.98;51.12;101977.66;16103680;19;131719;-48
2023/10/09 02:22:40;;;;;;;3.60;1.90;;;;;;;19.98;51.15;101979.59;16102557;19;130985;-47
2023/10/09 02:28:05;;;;;;;4.20;2.20;;;;;;;19.98;51.13;101974.03;16097961;19;130504;-47
2023/10/09 02:33:28;;;;;;;3.33;1.80;;;;;;;19.97;51.28;101978.72;16105577;19;130693;-50
2023/10/09 02:38:53;;;;;;;3.38;1.88;;;;;;;19.98;51.33;101988.75;16106126;19;131056;-47
2023/10/09 02:44:15;;;;;;;3.92;2.10;;;;;;;19.96;51.33;101992.84;16107455;19;130887;-47
2023/10/09 02:49:39;;;;;;;5.57;2.08;;;;;;;19.96;51.13;101971.47;16108299;19;130197;-49
2023/10/09 02:55:08;;;;;;;4.40;2.08;;;;;;;19.95;51.10;101980.88;16099362;19;131422;-46
2023/10/09 03:00:32;;;;;;;2.55;1.73;;;;;;;19.96;50.90;101976.19;16106468;19;133239;-46
2023/10/09 03:05:54;;;;;;;3.05;1.80;;;;;;;19.95;51.10;101968.94;16119745;19;131401;-46
2023/10/09 03:11:18;;;;;;;3.33;1.85;;;;;;;19.95;51.40;101980.88;16119169;19;129514;-51
2023/10/09 03:16:40;;;;;;;2.63;1.98;;;;;;;19.93;51.30;101980.28;16119564;19;131438;-47
2023/10/09 03:22:02;;;;;;;2.92;1.80;;;;;;;19.94;51.09;101984.72;16124643;19;129821;-48
2023/10/09 03:27:25;;;;;;;2.55;1.80;;;;;;;19.93;51.07;101971.97;16118271;19;130542;-48
2023/10/09 03:32:51;;;;;;;3.38;1.90;;;;;;;19.94;51.08;101967.25;16117793;19;131149;-46
2023/10/09 03:38:16;;;;;;;3.53;2.13;;;;;;;19.93;51.41;101948.88;16114714;19;129909;-47
2023/10/09 03:43:41;;;;;;;3.10;1.95;;;;;;;19.93;50.91;101954.44;16113064;19;129940;-47
2023/10/09 03:49:10;;;;;;;3.70;1.90;;;;;;;19.92;51.24;101950.81;16114694;19;129585;-46
2023/10/09 03:54:35;;;;;;;3.13;1.80;;;;;;;19.91;51.30;101949.13;16119863;19;129701;-46
2023/10/09 03:59:57;;;;;;;1.77;1.42;;;;;;;19.92;50.94;101942.47;16116672;19;131136;-46
2023/10/09 04:05:18;;;;;;;2.33;1.48;;;;;;;19.92;50.86;101953.59;16114647;19;131164;-48
2023/10/09 04:10:44;;;;;;;4.65;1.80;;;;;;;19.91;50.82;101957.44;16115036;19;129555;-47
2023/10/09 04:16:26;;;;;;;3.67;1.73;;;;;;;19.90;51.16;101957.66;16114962;19;131184;-50
2023/10/09 04:21:49;;;;;;;2.08;1.45;;;;;;;19.90;51.05;101950.19;16111439;19;130574;-48
2023/10/09 04:27:12;;;;;;;2.45;1.77;;;;;;;19.89;51.10;101931.81;16116144;19;129900;-48
2023/10/09 04:32:34;;;;;;;5.22;1.88;;;;;;;19.89;50.91;101942.94;16113255;19;131094;-48
2023/10/09 04:38:05;;;;;;;2.50;1.50;;;;;;;19.88;51.05;101941.22;16114241;19;129835;-47
2023/10/09 04:43:27;;;;;;;2.03;1.35;;;;;;;19.88;51.31;101951.50;16108114;19;132325;-47
2023/10/09 04:48:52;;;;;;;2.75;1.80;;;;;;;19.88;51.31;101963.44;16110072;19;129907;-47
2023/10/09 04:54:14;;;;;;;2.30;1.60;;;;;;;19.88;51.28;101970.94;16114913;19;129698;-49
2023/10/09 04:59:46;;;;;;;2.15;1.55;;;;;;;19.88;51.11;101957.91;16110428;19;129985;-46
2023/10/09 05:05:47;;;;;;;2.85;1.63;;;;;;;19.88;50.85;101951.50;16109659;19;130411;-48
2023/10/09 05:11:15;;;;;;;2.55;1.58;;;;;;;19.88;51.28;101943.19;16113100;19;131093;-49
2023/10/09 05:16:54;;;;;;;2.38;1.55;;;;;;;19.87;50.82;101942.31;16109226;19;129699;-46
2023/10/09 05:22:36;;;;;;;2.97;1.77;;;;;;;19.87;51.00;101961.75;16112146;19;129431;-49
2023/10/09 05:28:24;;;;;;;2.50;1.77;;;;;;;19.89;50.91;101962.38;16104862;19;130750;-49
2023/10/09 05:33:45;;;;;;;11.32;2.88;;;;;;;19.90;51.05;101944.63;16109392;19;130457;-48
2023/10/09 05:57:44;;;;;;;7.00;2.67;;;;;;;19.94;50.99;101995.84;16100581;19;130108;-47
2023/10/09 06:03:23;;;;;;;7.78;2.50;;;;;;;19.91;50.87;101988.00;16100215;19;131924;-49
2023/10/09 06:08:06;;;;;;;10.77;2.85;;;;;;;19.90;50.81;101983.50;16095203;19;130466;-46
2023/10/09 06:13:46;;;;;;;8.82;2.60;;;;;;;19.88;51.05;101969.00;16097613;19;131087;-46
2023/10/09 06:19:12;;;;;;;4.45;2.47;;;;;;;19.87;50.79;101989.53;16107095;19;129856;-46
2023/10/09 06:24:54;;;;;;;7.90;2.17;;;;;;;19.87;50.74;102017.28;16110906;19;131454;-50
2023/10/09 06:30:27;;;;;;;10.77;2.38;;;;;;;19.88;51.13;102019.00;16108190;19;130864;-48
2023/10/09 06:35:55;;;;;;;5.63;2.72;;;;;;;19.86;50.69;102004.47;16107979;19;131105;-45
2023/10/09 06:41:34;;;;;;;9.57;2.47;;;;;;;19.88;50.34;101993.16;16121935;19;130255;-46
2023/10/09 06:47:07;;;;;;;6.47;2.53;;;;;;;19.90;50.53;101989.06;16115207;19;129688;-45
2023/10/09 06:52:57;;;;;;;5.28;2.70;;;;;;;19.92;50.23;102005.50;16123300;19;129634;-46
2023/10/09 06:58:15;;;;;;;4.47;2.47;;;;;;;19.92;50.34;101998.03;16124066;19;129654;-46
2023/10/09 07:03:51;;;;;;;;;;;;;;;19.89;50.50;101992.91;16124702;19;128919;-45
2023/10/09 07:20:11;;;;;;;8.88;2.70;;;;;;;19.92;49.96;102000.81;16121853;19;130403;-45
2023/10/09 07:25:42;;;;;;;5.85;2.80;;;;;;;19.94;50.29;101989.44;16122182;19;129438;-46
2023/10/09 07:31:08;;;;;;;5.53;2.83;;;;;;;19.94;50.08;101995.84;16121329;19;130030;-48
2023/10/09 07:36:34;;;;;;;5.95;2.90;;;;;;;19.98;49.81;101983.22;16118576;19;130907;-49
2023/10/09 07:42:01;;;;;;;6.45;2.92;;;;;;;20.05;49.64;102007.34;16119072;19;130510;-47
2023/10/09 07:47:45;;;;;;;5.75;3.05;;;;;;;20.14;49.87;102017.06;16119010;19;130481;-48
2023/10/09 07:58:46;;;;;;;6.22;3.25;;;;;;;20.11;49.87;102011.94;16117606;19;129840;-45
2023/10/09 08:04:11;;;;;;;7.47;3.67;;;;;;;20.09;49.63;101994.66;16119828;19;129969;-47
2023/10/09 08:10:58;;;;;;;8.32;3.58;;;;;;;20.21;49.21;101997.53;16119949;19;131542;-46
2023/10/09 08:15:51;;;;;;;5.80;3.42;;;;;;;20.78;48.36;102019.53;16119689;19;131837;-46
2023/10/09 08:26:47;;;;;;;7.30;3.90;;;;;;;20.67;48.48;102039.75;16120715;19;130433;-46
2023/10/09 08:32:18;;;;;;;5.20;3.67;;;;;;;20.66;48.43;102035.28;16117529;19;129706;-47
2023/10/09 08:37:48;;;;;;;6.78;3.53;;;;;;;20.65;48.36;102028.84;16116599;19;130619;-48
2023/10/09 08:43:17;;;;;;;11.25;4.28;;;;;;;20.58;48.62;102017.81;16116319;19;132522;-46
2023/10/09 08:48:39;;;;;;;10.93;4.15;;;;;;;20.49;48.55;102013.66;16117566;19;129709;-48
2023/10/09 08:54:02;;;;;;;14.73;6.38;;;;;;;20.43;48.66;102042.41;16110460;19;130861;-57
2023/10/09 08:59:24;;;;;;;17.50;8.45;;;;;;;20.33;48.70;102033.72;16115816;19;130010;-46
2023/10/09 09:04:50;;;;;;;21.17;7.85;;;;;;;20.28;48.55;102032.50;16112716;19;130127;-47
2023/10/09 09:10:21;;;;;;;13.93;8.15;;;;;;;20.29;49.12;102039.78;16114950;19;129794;-47
2023/10/09 09:15:47;;;;;;;20.27;8.63;;;;;;;20.31;49.03;102045.09;16114507;19;129464;-44
2023/10/09 09:21:24;;;;;;;16.52;8.82;;;;;;;20.33;49.01;102030.94;16113007;19;129813;-45
2023/10/09 09:26:46;;;;;;;14.80;8.98;;;;;;;20.33;48.58;102033.72;16114296;19;130805;-48
2023/10/09 09:32:17;;;;;;;13.85;8.68;;;;;;;20.34;49.04;102038.22;16109820;19;130407;-47
2023/10/09 09:43:11;;;;;;;16.23;8.67;;;;;;;20.33;48.50;102003.16;16108992;19;130919;-45
2023/10/09 09:48:39;;;;;;;18.95;8.38;;;;;;;20.33;48.67;101995.69;16110919;19;129476;-46
2023/10/09 09:54:02;;;;;;;19.27;8.40;;;;;;;20.34;48.57;101994.59;16085591;19;130396;-45
2023/10/09 09:59:29;;;;;;;17.67;8.23;;;;;;;20.37;48.81;102010.78;16111414;19;130514;-46
2023/10/09 10:04:56;;;;;;;16.75;7.78;;;;;;;20.39;48.72;102007.81;16112078;19;130290;-45
2023/10/09 10:10:37;;;;;;;15.40;7.32;;;;;;;20.43;48.43;102009.06;16105106;19;130082;-44
2023/10/09 10:16:00;;;;;;;15.23;6.72;;;;;;;20.42;48.74;102015.69;16107005;19;129741;-44
2023/10/09 10:27:24;;;;;;;14.38;6.07;;;;;;;20.42;48.58;102021.25;16109850;19;129640;-47
2023/10/09 10:32:51;;;;;;;12.82;6.32;;;;;;;20.43;48.70;102031.28;16107349;19;131406;-45
2023/10/09 10:39:04;;;;;;;12.30;5.95;;;;;;;20.45;48.68;102045.78;16106882;19;130291;-45
2023/10/09 10:44:42;;;;;;;9.57;5.20;;;;;;;20.48;49.08;102056.44;16097493;19;131505;-46
2023/10/09 10:55:56;;;;;;;10.73;5.63;;;;;;;20.52;48.64;102051.25;16098476;19;129666;-45
2023/10/09 11:01:18;;;;;;;10.68;5.22;;;;;;;20.51;49.13;102061.53;16095809;19;131712;-46
2023/10/09 11:06:43;;;;;;;10.27;4.90;;;;;;;20.53;49.07;102053.81;16096759;19;129901;-44
2023/10/09 11:12:22;;;;;;;8.20;4.82;;;;;;;20.54;48.84;102041.63;16099622;19;129787;-46
2023/10/09 11:17:45;;;;;;;12.65;5.10;;;;;;;20.55;48.72;102032.22;16099186;19;129999;-45
2023/10/09 11:28:57;;;;;;;10.15;4.25;;;;;;;20.58;48.78;102037.28;16124492;19;129873;-45
2023/10/09 11:34:35;;;;;;;;;;;;;;;20.58;48.98;102055.91;16122210;19;129237;-44
2023/10/09 11:39:59;;;;;;;8.20;4.90;;;;;;;20.59;49.09;102041.75;16122386;19;129602;-48
2023/10/09 11:45:24;;;;;;;9.30;4.53;;;;;;;20.60;49.20;102042.63;16121293;19;129370;-54
2023/10/09 11:56:27;;;;;;;10.57;3.90;;;;;;;20.55;49.26;102043.31;16120904;19;129597;-48
2023/10/09 12:01:52;;;;;;;9.20;4.03;;;;;;;20.51;49.46;102039.31;16121037;19;130432;-44
2023/10/09 12:07:15;;;;;;;5.93;3.63;;;;;;;20.51;49.50;102039.31;16120669;19;129414;-44
2023/10/09 12:12:37;;;;;;;7.63;3.90;;;;;;;20.50;49.54;102037.59;16122041;19;129469;-47
2023/10/09 12:17:58;;;;;;;5.35;3.78;;;;;;;20.51;49.10;102038.44;16120696;19;129714;-44
2023/10/09 12:23:22;;;;;;;7.10;3.60;;;;;;;20.50;49.19;102034.81;16117288;19;130323;-46
2023/10/09 12:28:49;;;;;;;7.65;4.28;;;;;;;20.49;49.18;102035.06;16114620;19;129505;-48
2023/10/09 12:34:16;;;;;;;6.78;3.92;;;;;;;20.49;49.41;102030.34;16111398;19;129717;-45
2023/10/09 12:39:40;;;;;;;7.85;4.50;;;;;;;20.50;49.25;102028.41;16114847;19;131033;-51
2023/10/09 12:45:08;;;;;;;9.27;5.00;;;;;;;20.49;49.44;102022.00;16113458;19;129692;-46
2023/10/09 12:50:33;;;;;;;8.07;4.47;;;;;;;20.49;49.58;102019.22;16116882;19;131022;-44
2023/10/09 12:55:56;;;;;;;7.65;4.22;;;;;;;20.48;49.46;102011.13;16117389;19;130827;-45
2023/10/09 13:01:20;;;;;;;7.57;4.43;;;;;;;20.45;49.53;102024.41;16113165;19;129455;-47
2023/10/09 13:06:45;;;;;;;7.97;4.25;;;;;;;20.45;49.48;102012.41;16115050;19;129552;-44
2023/10/09 13:12:09;;;;;;;4.88;3.80;;;;;;;20.45;49.40;102004.09;16116353;19;128978;-45
2023/10/09 13:17:31;;;;;;;7.32;4.22;;;;;;;20.45;49.32;102001.31;16115070;19;129466;-45
2023/10/09 13:22:57;;;;;;;6.87;4.20;;;;;;;20.44;49.40;101989.34;16110785;19;134029;-50
2023/10/09 13:28:20;;;;;;;9.02;5.72;;;;;;;20.43;49.91;101987.66;16115153;19;131877;-50
2023/10/09 13:33:44;;;;;;;14.88;7.63;;;;;;;20.46;49.86;101991.88;16118065;19;129443;-48
2023/10/09 13:39:21;;;;;;;15.32;8.10;;;;;;;20.47;49.57;101987.19;16114208;19;130216;-46
2023/10/09 13:44:43;;;;;;;16.05;8.45;;;;;;;20.45;49.57;101993.81;16115539;19;130123;-51
2023/10/09 13:50:09;;;;;;;17.27;9.20;;;;;;;20.45;49.98;102013.28;16108050;19;132252;-51
2023/10/09 13:55:43;;;;;;;16.77;8.02;;;;;;;20.47;49.82;102015.81;16113958;19;130798;-47
2023/10/09 14:01:08;;;;;;;13.43;7.05;;;;;;;20.45;49.71;102009.63;16108556;19;130790;-47
2023/10/09 14:06:32;;;;;;;16.83;8.17;;;;;;;20.44;49.94;101999.59;16110855;19;129698;-45
2023/10/09 14:12:05;;;;;;;14.93;7.70;;;;;;;20.45;49.83;102001.31;16114062;19;132651;-45
2023/10/09 14:17:30;;;;;;;15.70;7.22;;;;;;;20.44;49.81;101991.25;16111517;19;130394;-44
2023/10/09 14:22:52;;;;;;;18.27;7.32;;;;;;;20.42;49.82;101982.34;16108877;19;130005;-45
2023/10/09 14:28:18;;;;;;;21.65;8.77;;;;;;;20.41;49.74;101987.03;16109250;19;130582;-44
2023/10/09 14:33:40;;;;;;;19.83;8.88;;;;;;;20.41;49.90;101988.97;16108960;19;131394;-44
2023/10/09 14:39:04;;;;;;;16.27;8.10;;;;;;;20.40;49.54;101995.59;16108128;19;129704;-44
2023/10/09 14:44:30;;;;;;;20.58;8.23;;;;;;;20.41;49.97;101983.41;16110401;19;130825;-46
2023/10/09 14:49:53;;;;;;;17.08;8.48;;;;;;;20.42;49.99;101974.81;16108975;19;130067;-44
2023/10/09 14:55:20;;;;;;;18.40;8.32;;;;;;;20.43;50.38;101984.03;16107965;19;130896;-46
2023/10/09 15:00:46;;;;;;;15.10;7.88;;;;;;;20.43;50.01;101981.25;16115773;19;130156;-44
2023/10/09 15:06:11;;;;;;;18.70;8.15;;;;;;;20.42;50.14;101979.56;16123080;19;130712;-44
2023/10/09 15:11:33;;;;;;;15.90;8.20;;;;;;;20.42;50.42;101968.44;16126441;19;130710;-44
2023/10/09 15:16:55;;;;;;;15.13;7.72;;;;;;;20.43;50.06;101981.25;16111485;19;131662;-44
2023/10/09 15:22:21;;;;;;;19.70;8.70;;;;;;;20.44;50.24;101977.38;16123255;19;129513;-45
2023/10/09 15:27:43;;;;;;;18.85;9.15;;;;;;;20.45;50.30;101984.63;16119805;19;130885;-51
2023/10/09 15:33:05;;;;;;;21.05;10.43;;;;;;;20.45;50.90;101973.50;16118479;19;129400;-55
2023/10/09 15:38:29;;;;;;;23.13;10.38;;;;;;;20.45;50.84;101976.28;16110983;19;129269;-52
2023/10/09 15:43:51;;;;;;;24.63;11.15;;;;;;;20.45;50.70;101973.50;16104952;19;129740;-49
2023/10/09 15:49:15;;;;;;;28.63;13.95;;;;;;;20.45;50.57;101966.03;16112038;19;129636;-49
2023/10/09 15:54:37;;;;;;;44.70;17.65;;;;;;;20.46;51.13;101977.97;16106227;19;130814;-49
2023/10/09 15:59:58;;;;;;;39.45;17.58;;;;;;;20.48;50.98;101977.78;16118419;19;131015;-51
2023/10/09 16:05:30;;;;;;;38.28;17.25;;;;;;;20.47;51.84;101987.19;16115282;19;129583;-47
2023/10/09 16:10:52;;;;;;;30.50;15.18;;;;;;;20.46;51.82;101986.31;16120539;19;131481;-48
2023/10/09 16:16:14;;;;;;;26.95;13.65;;;;;;;20.44;51.62;101988.47;16123426;19;130628;-51
2023/10/09 16:21:36;;;;;;;32.08;14.27;;;;;;;20.42;51.95;101990.66;16116417;19;130896;-47
2023/10/09 16:26:59;;;;;;;31.27;13.48;;;;;;;20.42;51.97;102004.56;16113763;19;131243;-47
2023/10/09 16:32:23;;;;;;;23.40;12.00;;;;;;;20.43;51.62;101989.59;16119977;19;131207;-45
2023/10/09 16:37:49;;;;;;;25.52;12.10;;;;;;;20.40;51.94;101988.09;16116002;19;129670;-45
2023/10/09 16:43:13;;;;;;;;;;;;;;;20.39;52.34;101991.13;16109145;19;129683;-45
2023/10/09 16:48:39;;;;;;;19.20;9.68;;;;;;;20.42;52.31;102008.19;16109875;19;130605;-47
2023/10/09 16:54:02;;;;;;;19.35;9.30;;;;;;;20.42;51.89;101999.84;16111928;19;130727;-44
2023/10/09 16:59:24;;;;;;;21.13;8.77;;;;;;;20.45;51.96;102010.50;16113782;19;129911;-47
2023/10/09 17:04:46;;;;;;;16.10;7.72;;;;;;;20.47;52.35;102009.44;16109493;19;130872;-48
2023/10/09 17:10:14;;;;;;;19.67;7.88;;;;;;;20.45;51.91;102013.28;16114435;19;131964;-44
2023/10/09 17:15:37;;;;;;;13.02;6.65;;;;;;;20.44;52.36;102022.69;16111552;19;129914;-43
2023/10/09 17:21:00;;;;;;;15.82;6.25;;;;;;;20.42;52.23;102022.09;16106301;19;131134;-46
2023/10/09 17:26:23;;;;;;;14.10;6.15;;;;;;;20.43;52.17;102021.00;16111186;19;129692;-45
2023/10/09 17:31:45;;;;;;;12.43;5.72;;;;;;;20.41;52.16;102025.09;16105311;19;131053;-50
2023/10/09 17:37:07;;;;;;;12.05;5.43;;;;;;;20.40;52.13;102031.75;16106957;19;130927;-45
2023/10/09 17:42:29;;;;;;;14.50;5.22;;;;;;;20.40;52.33;102026.19;16104942;19;131143;-45
2023/10/09 17:47:51;;;;;;;9.05;5.32;;;;;;;20.39;52.24;102035.59;16100589;19;130698;-45
2023/10/09 17:53:17;;;;;;;11.40;5.20;;;;;;;20.39;52.32;102032.81;16079631;19;131784;-48
2023/10/09 17:58:49;;;;;;;9.05;5.15;;;;;;;20.38;52.26;102031.94;16100266;19;130887;-49
2023/10/09 18:04:13;;;;;;;17.77;5.72;;;;;;;20.39;52.04;102041.16;16035440;19;129984;-51
2023/10/09 18:09:35;;;;;;;14.60;5.20;;;;;;;20.38;52.06;102031.94;16062078;19;129952;-47
2023/10/09 18:14:59;;;;;;;17.98;5.28;;;;;;;20.40;52.53;102040.06;16028767;19;130225;-47
2023/10/09 18:20:21;;;;;;;17.48;4.78;;;;;;;20.41;52.34;102044.56;16077245;19;131073;-45
2023/10/09 18:25:50;;;;;;;15.05;4.60;;;;;;;20.43;52.50;102042.41;16062746;19;130266;-47
2023/10/09 18:31:16;;;;;;;10.25;4.70;;;;;;;20.42;52.07;102040.69;16035645;19;130613;-45
2023/10/09 18:36:38;;;;;;;13.68;5.25;;;;;;;20.41;52.41;102052.91;16052378;19;130580;-46
2023/10/09 18:42:00;;;;;;;15.20;5.22;;;;;;;20.41;52.34;102044.56;16122145;19;130806;-46
2023/10/09 18:47:22;;;;;;;15.82;4.82;;;;;;;20.44;52.03;102055.19;16124448;19;129372;-47
2023/10/09 18:52:45;;;;;;;18.48;4.75;;;;;;;20.45;51.79;102052.19;16122827;19;130599;-47
2023/10/09 18:58:09;;;;;;;14.52;4.30;;;;;;;20.48;52.27;102053.66;16123565;19;130643;-45
2023/10/09 19:03:33;;;;;;;10.13;4.20;;;;;;;20.50;52.26;102054.28;16124855;19;131268;-45
2023/10/09 19:08:58;;;;;;;15.65;3.95;;;;;;;20.53;51.93;102052.97;16122941;19;129670;-44
2023/10/09 19:14:20;;;;;;;11.27;3.65;;;;;;;20.54;52.09;102063.88;16121415;19;130625;-47
2023/10/09 19:19:42;;;;;;;17.58;4.40;;;;;;;20.56;52.10;102070.03;16127787;19;129375;-45
2023/10/09 19:25:16;;;;;;;9.43;3.83;;;;;;;20.59;52.27;102068.72;16123147;19;129438;-46
2023/10/09 19:30:38;;;;;;;11.30;3.80;;;;;;;20.59;52.06;102066.78;16121515;19;130117;-46
2023/10/09 19:36:02;;;;;;;12.40;4.13;;;;;;;20.60;51.80;102071.25;16124590;19;129394;-47
2023/10/09 19:41:24;;;;;;;6.03;2.92;;;;;;;20.62;51.96;102071.03;16121874;19;131774;-48
2023/10/09 19:46:47;;;;;;;8.63;3.22;;;;;;;20.63;51.94;102069.94;16118274;19;129866;-47
2023/10/09 19:52:09;;;;;;;20.95;3.85;;;;;;;20.63;52.18;102077.44;16118029;19;130837;-49
2023/10/09 19:57:33;;;;;;;8.25;3.17;;;;;;;20.64;51.87;102077.19;16122268;19;131820;-46
2023/10/09 20:02:57;;;;;;;6.32;3.15;;;;;;;20.65;51.79;102078.91;16115702;19;130446;-45
2023/10/09 20:08:19;;;;;;;13.50;3.08;;;;;;;20.65;51.52;102089.19;16112750;19;131042;-45
2023/10/09 20:13:43;;;;;;;6.20;2.50;;;;;;;20.64;51.83;102081.94;16114401;19;129684;-46
2023/10/09 20:19:08;;;;;;;5.53;3.03;;;;;;;20.64;52.02;102076.38;16115584;19;129927;-46
2023/10/09 20:24:31;;;;;;;7.18;2.90;;;;;;;20.63;51.83;102069.94;16116185;19;132027;-44
2023/10/09 20:29:53;;;;;;;6.68;2.90;;;;;;;20.63;51.83;102061.59;16119311;19;130950;-45
2023/10/09 20:35:16;;;;;;;4.97;2.63;;;;;;;20.63;52.07;102058.81;16115991;19;130860;-45
2023/10/09 20:40:42;;;;;;;6.85;2.88;;;;;;;20.62;51.46;102051.56;16087035;19;132376;-46
2023/10/09 20:46:04;;;;;;;10.25;2.72;;;;;;;20.59;51.47;102052.88;16110799;19;132539;-42
2023/10/09 20:51:27;;;;;;;7.65;2.83;;;;;;;20.56;51.55;102058.06;16110459;19;130735;-45
2023/10/09 20:56:53;;;;;;;19.70;8.20;;;;;;;20.50;50.90;102056.19;16107036;19;131022;-44
2023/10/09 21:02:15;;;;;;;12.30;7.80;;;;;;;20.42;49.78;102063.78;16119009;19;129841;-43
2023/10/09 21:07:37;;;;;;;19.52;7.72;;;;;;;20.40;49.98;102053.97;16112323;19;130238;-47
2023/10/09 21:13:00;;;;;;;10.82;6.35;;;;;;;20.39;49.76;102058.66;16114054;19;130557;-45
2023/10/09 21:18:22;;;;;;;12.20;6.25;;;;;;;20.38;50.03;102048.63;16114137;19;129666;-44
2023/10/09 21:23:45;;;;;;;9.05;5.30;;;;;;;20.39;49.68;102057.84;16116033;19;131294;-43
2023/10/09 21:29:10;;;;;;;7.43;5.10;;;;;;;20.39;49.65;102055.06;16115303;19;129590;-46
2023/10/09 21:34:34;;;;;;;8.30;4.97;;;;;;;20.38;49.97;102058.91;16115517;19;131708;-44
2023/10/09 21:39:56;;;;;;;9.40;5.03;;;;;;;20.37;50.12;102062.75;16113203;19;130334;-46
2023/10/09 21:45:19;;;;;;;7.65;4.05;;;;;;;20.37;49.76;102065.53;16112520;19;131479;-43
2023/10/09 21:50:42;;;;;;;6.70;3.65;;;;;;;20.36;49.83;102058.28;16110539;19;129906;-45
2023/10/09 21:56:09;;;;;;;7.10;3.40;;;;;;;20.36;49.99;102074.97;16111097;19;129353;-46
2023/10/09 22:01:31;;;;;;;5.05;3.40;;;;;;;20.35;50.19;102065.78;16115360;19;131164;-46
2023/10/09 22:06:53;;;;;;;5.13;2.88;;;;;;;20.34;49.87;102057.66;16111791;19;130030;-44
2023/10/09 22:12:16;;;;;;;4.35;2.75;;;;;;;20.33;49.79;102050.41;16111642;19;132700;-44
2023/10/09 22:17:43;;;;;;;5.90;2.92;;;;;;;20.32;50.25;102048.69;16111033;19;129595;-48
2023/10/09 22:23:13;;;;;;;4.43;2.53;;;;;;;20.31;49.93;102044.25;16109926;19;130749;-44
2023/10/09 22:28:40;;;;;;;5.22;3.10;;;;;;;20.28;49.95;102043.63;16108652;19;130416;-44
2023/10/09 22:34:10;;;;;;;5.53;3.00;;;;;;;20.28;49.82;102034.44;16110308;19;131501;-44
2023/10/09 22:39:36;;;;;;;3.28;2.28;;;;;;;20.27;50.27;102044.72;16110257;19;130462;-43
2023/10/09 22:44:59;;;;;;;3.40;2.20;;;;;;;20.27;50.33;102047.47;16111677;19;128982;-43
2023/10/09 22:50:21;;;;;;;3.83;2.30;;;;;;;20.24;50.26;102036.81;16102169;19;129388;-44
2023/10/09 22:55:51;;;;;;;4.25;2.30;;;;;;;20.24;50.08;102041.53;16105968;19;129576;-45
2023/10/09 23:01:18;;;;;;;5.45;2.50;;;;;;;20.23;49.84;102043.47;16108707;19;129726;-45
2023/10/09 23:06:46;;;;;;;2.80;1.90;;;;;;;20.22;50.07;102052.88;16111702;19;129639;-44
2023/10/09 23:12:08;;;;;;;3.72;1.90;;;;;;;20.22;50.37;102041.75;16106959;19;130512;-45
2023/10/09 23:17:47;;;;;;;3.05;1.80;;;;;;;20.21;50.28;102048.38;16110076;19;131741;-43
2023/10/09 23:23:10;;;;;;;3.28;1.88;;;;;;;20.20;49.89;102032.78;16119861;19;130717;-47
2023/10/09 23:28:38;;;;;;;2.65;1.60;;;;;;;20.18;49.90;102039.66;16117714;19;129646;-44
2023/10/09 23:34:07;;;;;;;2.35;1.52;;;;;;;20.18;49.82;102034.09;16120847;19;130975;-44
2023/10/09 23:45:20;;;;;;;2.25;1.52;;;;;;;20.14;50.22;102029.00;16120651;19;129544;-44
2023/10/09 23:50:54;;;;;;;1.63;1.33;;;;;;;20.13;50.14;102023.69;16121195;19;130509;-44
2023/10/09 23:56:42;;;;;;;1.92;1.45;;;;;;;20.13;50.20;102032.03;16119430;19;130352;-44
